Time;durP1;ratioP1;P1;durP2;ratioP2;P2;SDS_P1;SDS_P2;PMS_P1;PMS_P2;Temp;Humidity;BMP_temperature;BMP_pressure;BME280_temperature;BME280_humidity;BME280_pressure;Samples;Min_cycle;Max_cycle;Signal;HPM_P1;HPM_P2
2024/02/13 00:00:29;;;;;;;3.10;2.30;;;2.20;99.90;;;2.72;100.00;97975.03;4981824;28;20974;-80
2024/02/13 00:02:57;;;;;;;3.47;2.60;;;2.00;99.90;;;2.84;100.00;97973.13;4981168;28;20468;-81
2024/02/13 00:05:27;;;;;;;3.63;2.57;;;2.10;99.90;;;2.73;100.00;97981.03;4981471;28;20603;-81
2024/02/13 00:07:59;;;;;;;3.00;2.43;;;2.00;99.90;;;2.63;100.00;97995.72;4981659;28;20467;-80
2024/02/13 00:10:30;;;;;;;12.00;2.63;;;1.90;99.90;;;2.66;100.00;97998.84;4982201;28;20498;-80
2024/02/13 00:12:59;;;;;;;3.30;2.57;;;2.00;99.90;;;2.77;100.00;97997.88;4982010;28;20961;-81
2024/02/13 00:15:28;;;;;;;3.60;2.70;;;2.10;99.90;;;2.75;100.00;98004.91;4981071;28;20560;-81
2024/02/13 00:17:56;;;;;;;11.70;3.20;;;2.10;99.90;;;2.66;100.00;98011.75;4980642;28;20474;-81
2024/02/13 00:20:25;;;;;;;4.00;2.50;;;2.00;99.90;;;2.62;100.00;98014.72;4981533;28;20476;-81
2024/02/13 00:22:55;;;;;;;3.03;2.30;;;2.00;99.90;;;2.59;100.00;98020.16;4981611;28;20459;-81
2024/02/13 00:25:25;;;;;;;7.40;2.57;;;1.90;99.90;;;2.68;100.00;98024.50;4982065;28;20503;-81
2024/02/13 00:27:55;;;;;;;6.87;3.07;;;2.00;99.90;;;2.74;100.00;98018.78;4980958;28;20457;-81
2024/02/13 00:30:24;;;;;;;3.00;2.17;;;2.00;99.90;;;2.71;100.00;98021.66;4981229;28;20464;-81
2024/02/13 00:32:52;;;;;;;3.93;2.50;;;2.10;99.90;;;2.73;100.00;98022.31;4981260;28;20470;-80
2024/02/13 00:35:21;;;;;;;3.43;2.47;;;2.10;99.90;;;2.76;100.00;98030.59;4980570;28;20499;-81
2024/02/13 00:37:49;;;;;;;4.80;2.80;;;2.00;99.90;;;2.73;100.00;98023.13;4980611;28;20472;-81
2024/02/13 00:40:18;;;;;;;4.40;2.80;;;2.10;99.90;;;2.77;100.00;98028.84;4979842;28;20463;-80
2024/02/13 00:42:49;;;;;;;5.00;2.47;;;2.10;99.90;;;2.74;100.00;98034.28;4981335;28;20563;-81
2024/02/13 00:45:19;;;;;;;6.07;3.43;;;2.00;99.90;;;2.62;100.00;98040.53;4980523;28;20460;-81
2024/02/13 00:47:48;;;;;;;5.30;3.27;;;1.90;99.90;;;2.47;100.00;98043.53;4980432;28;20472;-81
2024/02/13 00:50:17;;;;;;;4.10;3.00;;;1.90;99.90;;;2.46;100.00;98039.31;4980674;28;20460;-80
2024/02/13 00:52:45;;;;;;;4.30;2.80;;;1.80;99.90;;;2.51;100.00;98044.88;4980939;28;20542;-81
2024/02/13 00:55:14;;;;;;;8.33;2.50;;;1.80;99.90;;;2.52;100.00;98041.38;4981719;28;20585;-80
2024/02/13 00:57:43;;;;;;;4.90;2.50;;;1.90;99.90;;;2.47;100.00;98040.94;4980981;28;21026;-81
2024/02/13 01:00:13;;;;;;;5.10;2.10;;;1.80;99.90;;;2.49;100.00;98044.22;4980940;28;20906;-81
2024/02/13 01:02:42;;;;;;;7.30;2.43;;;1.80;99.90;;;2.39;100.00;98046.00;4979597;28;20691;-81
2024/02/13 01:05:11;;;;;;;2.73;2.53;;;1.80;99.90;;;2.44;100.00;98043.81;4980460;28;20994;-81
2024/02/13 01:07:40;;;;;;;10.70;3.30;;;1.80;99.90;;;2.49;100.00;98046.00;4979994;28;20496;-81
2024/02/13 01:10:09;;;;;;;7.60;2.80;;;1.80;99.90;;;2.45;100.00;98055.75;4980263;28;20969;-81
2024/02/13 01:12:39;;;;;;;4.40;2.80;;;1.80;99.90;;;2.46;100.00;98049.63;4978756;28;20518;-81
2024/02/13 01:15:08;;;;;;;3.17;2.80;;;1.80;99.90;;;2.35;100.00;98052.38;4980997;28;20475;-81
2024/02/13 01:17:36;;;;;;;6.50;3.00;;;1.70;99.90;;;2.33;100.00;98054.25;4980790;28;20836;-81
2024/02/13 01:20:11;;;;;;;9.60;2.80;;;1.70;99.90;;;2.30;100.00;98051.94;4981511;28;20954;-81
2024/02/13 01:22:41;;;;;;;9.00;2.83;;;1.60;99.90;;;2.36;100.00;98056.56;4978674;28;20937;-81
2024/02/13 01:25:13;;;;;;;4.87;2.93;;;1.70;99.90;;;2.38;100.00;98052.09;4980659;28;20556;-81
2024/02/13 01:27:42;;;;;;;5.23;3.03;;;1.80;99.90;;;2.35;100.00;98060.09;4978719;28;20576;-81
2024/02/13 01:30:13;;;;;;;8.00;2.97;;;1.70;99.90;;;2.28;100.00;98059.03;4980583;28;20471;-80
2024/02/13 01:32:42;;;;;;;5.50;3.00;;;1.60;99.90;;;2.22;100.00;98064.69;4978351;28;20488;-81
2024/02/13 01:35:13;;;;;;;3.03;2.50;;;1.60;99.90;;;2.20;100.00;98064.03;4979245;28;20998;-81
2024/02/13 01:37:42;;;;;;;5.30;2.97;;;1.50;99.90;;;2.26;100.00;98060.09;4979994;28;21031;-81
2024/02/13 01:40:16;;;;;;;8.23;2.63;;;1.50;99.90;;;2.29;100.00;98063.22;4980158;28;20882;-81
2024/02/13 01:42:48;;;;;;;4.63;2.30;;;1.60;99.90;;;2.24;100.00;98067.16;4978244;28;20501;-81
2024/02/13 01:45:17;;;;;;;4.93;3.20;;;1.50;99.90;;;2.14;100.00;98069.72;4979385;28;20478;-81
2024/02/13 01:47:46;;;;;;;7.63;2.63;;;1.40;99.90;;;2.01;100.00;98079.47;4979969;28;20514;-81
2024/02/13 01:50:20;;;;;;;3.07;2.63;;;1.30;99.90;;;1.91;100.00;98076.03;4979787;28;20986;-81
2024/02/13 01:52:52;;;;;;;2.40;2.20;;;1.20;99.90;;;2.00;100.00;98081.25;4979044;28;20460;-80
2024/02/13 01:55:25;;;;;;;4.20;2.00;;;1.30;99.90;;;2.02;100.00;98078.50;4980071;28;20492;-81
2024/02/13 01:57:56;;;;;;;4.90;3.10;;;1.40;99.90;;;2.00;100.00;98078.66;4980730;28;20498;-81
2024/02/13 02:00:27;;;;;;;6.23;2.80;;;1.30;99.90;;;2.11;100.00;98082.06;4979117;28;20526;-81
2024/02/13 02:02:56;;;;;;;9.57;3.00;;;1.40;99.90;;;2.15;100.00;98081.69;4978764;28;20471;-81
2024/02/13 02:05:25;;;;;;;2.90;2.40;;;1.50;99.90;;;2.17;100.00;98087.50;4979493;28;21071;-81
2024/02/13 02:07:56;;;;;;;6.80;2.43;;;1.50;99.90;;;2.17;100.00;98092.66;4979724;28;21499;-81
2024/02/13 02:10:24;;;;;;;8.80;2.63;;;1.50;99.90;;;2.10;100.00;98086.41;4980648;28;20468;-81
2024/02/13 02:12:53;;;;;;;6.20;3.20;;;1.40;99.90;;;2.16;100.00;98093.59;4979591;28;20472;-81
2024/02/13 02:15:21;;;;;;;7.83;2.70;;;1.50;99.90;;;2.13;100.00;98099.03;4979397;28;20463;-81
2024/02/13 02:17:53;;;;;;;3.70;2.20;;;1.40;99.90;;;2.18;100.00;98099.47;4979119;28;20458;-81
2024/02/13 02:20:23;;;;;;;5.60;2.97;;;1.50;99.90;;;1.99;100.00;98107.16;4981235;28;20463;-81
2024/02/13 02:22:53;;;;;;;3.17;2.70;;;1.30;99.90;;;1.87;100.00;98108.22;4980035;28;20470;-81
2024/02/13 02:25:23;;;;;;;2.87;1.90;;;1.20;99.90;;;1.98;100.00;98105.50;4980996;28;20541;-81
2024/02/13 02:27:51;;;;;;;3.83;2.50;;;1.30;99.90;;;2.07;100.00;98102.16;4981964;28;20531;-81
2024/02/13 02:30:20;;;;;;;4.30;2.30;;;1.40;99.90;;;2.15;100.00;98115.22;4983668;28;20463;-80
2024/02/13 02:32:48;;;;;;;3.97;2.80;;;1.50;99.90;;;2.12;100.00;98112.88;4984172;28;20471;-81
2024/02/13 02:35:17;;;;;;;4.67;2.63;;;1.50;99.90;;;2.04;100.00;98110.16;4983973;28;20926;-81
2024/02/13 02:37:48;;;;;;;4.37;2.37;;;1.40;99.90;;;1.97;100.00;98109.88;4982737;28;20554;-81
2024/02/13 02:40:18;;;;;;;4.70;2.63;;;1.30;99.90;;;1.97;100.00;98112.44;4984155;28;20467;-81
2024/02/13 02:42:52;;;;;;;7.17;3.00;;;1.30;99.90;;;1.95;100.00;98111.75;4984875;28;20477;-81
2024/02/13 02:45:20;;;;;;;5.13;3.07;;;1.20;99.90;;;2.05;100.00;98118.72;4983217;28;20448;-81
2024/02/13 02:47:49;;;;;;;3.17;2.60;;;1.40;99.90;;;1.99;100.00;98127.78;4983958;28;20926;-80
2024/02/13 02:50:18;;;;;;;2.67;2.40;;;1.30;99.90;;;2.08;100.00;98116.69;4983409;28;21024;-81
2024/02/13 02:52:46;;;;;;;4.43;2.63;;;1.40;99.90;;;2.08;100.00;98121.03;4982980;28;20468;-81
2024/02/13 02:55:17;;;;;;;3.70;2.53;;;1.40;99.90;;;1.93;100.00;98118.00;4982444;28;20520;-81
2024/02/13 02:57:46;;;;;;;5.83;2.40;;;1.20;99.90;;;1.83;100.00;98124.88;4983435;28;20561;-81
2024/02/13 03:00:20;;;;;;;5.10;2.23;;;1.10;99.90;;;1.86;100.00;98128.00;4984639;28;20470;-81
2024/02/13 03:02:49;;;;;;;4.27;2.60;;;1.20;99.90;;;1.96;100.00;98126.28;4982224;28;20461;-81
2024/02/13 03:05:17;;;;;;;8.27;2.60;;;1.30;99.90;;;2.05;100.00;98129.81;4982092;28;20479;-81
2024/02/13 03:07:46;;;;;;;2.60;1.97;;;1.30;99.90;;;2.03;100.00;98127.38;4983195;28;20501;-81
2024/02/13 03:10:15;;;;;;;8.73;2.53;;;1.50;99.90;;;2.07;100.00;98132.28;4982693;28;20456;-81
2024/02/13 03:12:44;;;;;;;6.37;2.77;;;1.40;99.90;;;2.09;100.00;98136.34;4982411;28;20476;-81
2024/02/13 03:15:13;;;;;;;3.63;2.40;;;1.40;99.90;;;2.02;100.00;98133.47;4980783;28;20600;-81
2024/02/13 03:17:48;;;;;;;13.47;2.70;;;1.30;99.90;;;2.05;100.00;98129.81;4983199;28;20527;-81
2024/02/13 03:20:16;;;;;;;4.07;2.77;;;1.40;99.90;;;2.03;100.00;98142.03;4982743;28;20969;-81
2024/02/13 03:22:45;;;;;;;2.90;2.30;;;1.40;99.90;;;2.09;100.00;98140.69;4982514;28;20529;-81
2024/02/13 03:25:13;;;;;;;6.77;2.43;;;1.40;99.90;;;2.10;100.00;98139.75;4982280;28;20839;-81
2024/02/13 03:27:42;;;;;;;5.97;2.60;;;1.40;99.90;;;1.97;100.00;98145.97;4982841;28;20519;-81
2024/02/13 03:30:13;;;;;;;3.20;2.57;;;1.30;99.90;;;1.98;100.00;98144.19;4983849;28;20468;-81
2024/02/13 03:32:44;;;;;;;4.60;3.00;;;1.30;99.90;;;1.99;100.00;98145.81;4982105;28;20989;-81
2024/02/13 03:35:12;;;;;;;3.97;2.13;;;1.20;99.90;;;1.93;100.00;98157.47;4983203;28;20484;-81
2024/02/13 03:37:41;;;;;;;2.50;2.30;;;1.20;99.90;;;1.99;100.00;98156.13;4982704;28;20479;-81
2024/02/13 03:40:11;;;;;;;2.97;2.43;;;1.30;99.90;;;1.98;100.00;98155.31;4983040;28;20545;-81
2024/02/13 03:42:44;;;;;;;3.60;2.37;;;1.30;99.90;;;2.12;100.00;98150.75;4983005;28;20475;-81
2024/02/13 03:45:13;;;;;;;4.27;2.20;;;1.50;99.90;;;2.05;100.00;98155.59;4983036;28;20713;-81
2024/02/13 03:47:43;;;;;;;2.53;2.30;;;1.30;99.90;;;2.10;100.00;98157.78;4983459;28;20495;-81
2024/02/13 03:50:12;;;;;;;3.60;2.17;;;1.40;99.90;;;1.93;100.00;98151.50;4983357;28;20479;-81
2024/02/13 03:52:41;;;;;;;2.63;2.43;;;1.20;99.90;;;1.83;100.00;98156.63;4981625;28;21112;-81
2024/02/13 03:55:10;;;;;;;3.27;2.60;;;1.10;99.90;;;1.92;100.00;98160.19;4981938;28;20503;-81
2024/02/13 03:57:40;;;;;;;9.83;2.63;;;1.20;99.90;;;1.98;100.00;98159.66;4980948;28;20463;-81
2024/02/13 04:00:11;;;;;;;4.23;2.37;;;1.20;99.90;;;1.97;100.00;98166.59;4981723;28;20854;-81
2024/02/13 04:02:40;;;;;;;4.63;2.40;;;1.20;99.90;;;1.93;100.00;98167.78;4982912;28;21154;-80
2024/02/13 04:05:12;;;;;;;3.10;2.10;;;1.30;99.90;;;1.81;100.00;98170.56;4983362;28;20680;-81
2024/02/13 04:07:41;;;;;;;3.90;2.00;;;1.20;99.90;;;1.83;100.00;98166.94;4981939;28;20510;-80
2024/02/13 04:10:10;;;;;;;3.27;2.30;;;1.20;99.90;;;1.86;100.00;98168.44;4980919;28;20499;-81
2024/02/13 04:12:38;;;;;;;2.17;1.90;;;1.20;99.90;;;1.91;100.00;98174.81;4974126;28;20880;-80
2024/02/13 04:15:09;;;;;;;4.87;2.33;;;1.20;99.90;;;1.96;100.00;98171.88;4974001;28;20550;-81
2024/02/13 04:17:37;;;;;;;2.40;2.00;;;1.30;99.90;;;1.99;100.00;98174.19;4976224;28;20812;-80
2024/02/13 04:20:08;;;;;;;5.10;2.33;;;1.40;99.90;;;1.89;100.00;98175.91;4977638;28;20467;-80
2024/02/13 04:22:38;;;;;;;4.13;2.50;;;1.20;99.90;;;1.99;100.00;98175.00;4974274;28;20468;-85
2024/02/13 04:25:08;;;;;;;4.87;2.50;;;1.30;99.90;;;1.99;100.00;98174.19;4972987;28;20499;-81
2024/02/13 04:27:37;;;;;;;7.90;2.53;;;1.30;99.90;;;2.00;100.00;98173.25;4974184;28;20468;-82
2024/02/13 04:30:08;;;;;;;2.40;1.90;;;1.30;99.90;;;1.99;100.00;98171.59;4975135;28;20465;-81
2024/02/13 04:32:37;;;;;;;4.33;2.47;;;1.30;99.90;;;1.98;100.00;98175.94;4980685;28;20468;-81
2024/02/13 04:35:08;;;;;;;5.40;2.37;;;1.30;99.90;;;1.97;100.00;98176.09;4981456;28;20996;-82
2024/02/13 04:37:38;;;;;;;5.23;2.03;;;1.30;99.90;;;1.95;100.00;98186.50;4981430;28;20476;-82
2024/02/13 04:40:08;;;;;;;5.60;2.43;;;1.30;99.90;;;1.97;100.00;98186.41;4981193;28;20518;-76
2024/02/13 04:42:41;;;;;;;5.53;2.37;;;1.30;99.90;;;2.00;100.00;98186.13;4982018;28;20455;-76
2024/02/13 04:45:10;;;;;;;7.43;2.30;;;1.30;99.90;;;2.01;100.00;98193.72;4983037;28;20533;-76
2024/02/13 04:47:39;;;;;;;10.20;2.47;;;1.30;99.90;;;1.95;100.00;98201.16;4980641;28;20479;-77
2024/02/13 04:50:09;;;;;;;7.80;2.90;;;1.20;99.90;;;1.96;100.00;98195.06;4978630;28;20962;-76
2024/02/13 04:52:43;;;;;;;2.87;2.10;;;1.20;99.90;;;1.95;100.00;98203.75;4972485;28;20468;-77
2024/02/13 04:55:11;;;;;;;7.30;2.33;;;1.20;99.90;;;1.94;100.00;98199.56;4972817;28;20543;-76
2024/02/13 04:57:40;;;;;;;6.60;2.37;;;1.30;99.90;;;1.94;100.00;98207.28;4971249;28;20470;-76
2024/02/13 05:00:18;;;;;;;4.10;1.93;;;1.20;99.90;;;1.94;100.00;98209.88;4973123;28;20468;-75
2024/02/13 05:02:50;;;;;;;2.97;2.53;;;1.20;99.90;;;1.90;100.00;98214.47;4974087;28;20462;-76
2024/02/13 05:08:07;;;;;;;3.37;2.40;;;1.20;99.90;;;1.89;100.00;98206.84;4975401;28;20514;-75
2024/02/13 05:10:35;;;;;;;5.10;2.63;;;1.30;99.90;;;1.84;100.00;98214.16;4972883;28;20471;-76
2024/02/13 05:13:04;;;;;;;15.80;2.37;;;1.10;99.90;;;1.80;100.00;98213.59;4973384;28;21036;-76
2024/02/13 05:15:33;;;;;;;17.40;7.20;;;1.10;99.90;;;1.88;100.00;98216.34;4972421;28;20479;-76
2024/02/13 05:18:01;;;;;;;4.97;3.13;;;1.20;99.90;;;1.85;100.00;98210.63;4975360;28;20594;-76
2024/02/13 05:20:30;;;;;;;2.47;2.10;;;1.20;99.90;;;1.82;100.00;98216.03;4981511;28;20563;-75
2024/02/13 05:22:59;;;;;;;9.27;3.30;;;1.20;99.90;;;1.79;100.00;98217.13;4980248;28;20622;-75
2024/02/13 05:25:30;;;;;;;9.43;3.20;;;1.10;99.90;;;1.80;100.00;98213.59;4980699;28;20478;-75
2024/02/13 05:27:59;;;;;;;7.53;2.87;;;1.10;99.90;;;1.85;100.00;98208.03;4979641;28;20568;-75
2024/02/13 05:30:28;;;;;;;2.97;2.40;;;1.20;99.90;;;1.82;100.00;98216.03;4971627;28;20465;-75
2024/02/13 05:32:56;;;;;;;3.03;2.10;;;1.10;99.90;;;1.79;100.00;98216.28;4969726;28;20503;-75
2024/02/13 05:35:25;;;;;;;4.20;2.30;;;1.10;99.90;;;1.77;100.00;98207.88;4972633;28;20921;-75
2024/02/13 05:37:53;;;;;;;5.60;2.60;;;1.10;99.90;;;1.78;100.00;98209.50;4971280;28;20593;-75
2024/02/13 05:40:22;;;;;;;3.70;2.40;;;1.10;99.90;;;1.89;100.00;98212.00;4974286;28;20477;-75
2024/02/13 05:42:54;;;;;;;7.63;2.77;;;1.20;99.90;;;1.70;100.00;98211.91;4984454;28;20522;-74
2024/02/13 05:45:23;;;;;;;5.77;2.67;;;1.00;99.90;;;1.71;100.00;98214.34;4984752;28;20553;-75
2024/02/13 05:47:51;;;;;;;10.63;2.40;;;1.00;99.90;;;1.69;100.00;98216.25;4984107;28;20462;-75
2024/02/13 05:50:20;;;;;;;4.70;2.80;;;1.00;99.90;;;1.62;100.00;98224.59;4983949;28;20601;-75
2024/02/13 05:52:50;;;;;;;3.60;2.67;;;0.90;99.90;;;1.60;100.00;98222.16;4985475;28;20463;-75
2024/02/13 05:55:18;;;;;;;2.23;2.03;;;0.90;99.90;;;1.55;100.00;98229.44;4985598;28;20488;-75
2024/02/13 05:57:47;;;;;;;3.37;2.53;;;0.80;99.90;;;1.60;100.00;98232.44;4984904;28;20470;-75
2024/02/13 06:00:18;;;;;;;2.87;2.10;;;0.90;99.90;;;1.53;100.00;98241.63;4985906;28;20478;-75
2024/02/13 06:02:46;;;;;;;4.20;2.50;;;0.80;99.90;;;1.53;100.00;98241.63;4988188;28;20469;-75
2024/02/13 06:05:15;;;;;;;11.30;3.17;;;0.80;99.90;;;1.52;100.00;98240.84;4989996;28;20477;-75
2024/02/13 06:07:44;;;;;;;4.27;2.60;;;0.80;99.90;;;1.46;100.00;98241.31;4989587;28;20471;-75
2024/02/13 06:10:13;;;;;;;3.13;2.10;;;0.70;99.90;;;1.48;100.00;98244.59;4988300;28;21484;-75
2024/02/13 06:12:42;;;;;;;8.13;3.53;;;0.80;99.90;;;1.42;100.00;98237.34;4988989;28;20497;-75
2024/02/13 06:15:11;;;;;;;3.37;2.83;;;0.70;99.90;;;1.43;100.00;98246.72;4987448;28;20905;-75
2024/02/13 06:17:42;;;;;;;4.83;2.90;;;0.70;99.90;;;1.41;100.00;98243.47;4987502;28;20466;-74
2024/02/13 06:20:12;;;;;;;4.20;2.30;;;0.70;99.90;;;1.47;100.00;98250.69;4989651;28;20485;-76
2024/02/13 06:22:41;;;;;;;3.70;2.40;;;0.80;99.90;;;1.50;100.00;98253.00;4988779;28;20472;-75
2024/02/13 06:25:11;;;;;;;4.27;2.67;;;0.80;99.90;;;1.47;100.00;98258.41;4989534;28;20521;-75
2024/02/13 06:27:40;;;;;;;2.87;2.20;;;0.70;99.90;;;1.46;100.00;98255.94;4988174;28;20492;-75
2024/02/13 06:30:10;;;;;;;6.40;3.40;;;0.80;99.90;;;1.50;100.00;98267.66;4989148;28;20503;-75
2024/02/13 06:32:40;;;;;;;3.53;2.73;;;0.80;99.90;;;1.47;100.00;98265.31;4989368;28;20490;-75
2024/02/13 06:35:09;;;;;;;5.33;2.90;;;0.80;99.90;;;1.42;100.00;98270.84;4990414;28;20474;-75
2024/02/13 06:37:39;;;;;;;4.93;3.10;;;0.70;99.90;;;1.38;100.00;98276.38;4986418;28;21153;-74
2024/02/13 06:40:10;;;;;;;3.93;2.37;;;0.80;99.90;;;1.42;100.00;98270.84;4987957;28;20497;-74
2024/02/13 06:42:39;;;;;;;15.10;3.33;;;0.70;99.90;;;1.49;100.00;98276.34;4989692;28;20969;-75
2024/02/13 06:45:10;;;;;;;3.70;2.40;;;0.80;99.90;;;1.47;100.00;98267.91;4988981;28;20473;-75
2024/02/13 06:47:40;;;;;;;3.47;2.70;;;0.80;99.90;;;1.47;100.00;98273.88;4988501;28;20457;-74
2024/02/13 06:50:11;;;;;;;5.50;3.30;;;0.90;99.90;;;1.47;100.00;98275.63;4988510;28;20529;-74
2024/02/13 06:52:42;;;;;;;5.57;2.63;;;0.80;99.90;;;1.52;100.00;98282.06;4988763;28;20969;-75
2024/02/13 06:55:10;;;;;;;4.60;2.90;;;0.90;99.90;;;1.63;100.00;98282.94;4988953;28;20970;-75
2024/02/13 06:57:39;;;;;;;4.80;3.00;;;1.00;99.90;;;1.60;100.00;98285.78;4988320;28;20995;-75
2024/02/13 07:00:09;;;;;;;5.60;3.57;;;0.90;99.90;;;1.53;100.00;98285.44;4989018;28;20468;-75
2024/02/13 07:02:38;;;;;;;4.60;3.23;;;0.90;99.90;;;1.54;100.00;98294.78;4988398;28;20472;-75
2024/02/13 07:05:09;;;;;;;4.93;2.80;;;0.90;99.90;;;1.51;100.00;98297.63;4987972;28;20520;-75
2024/02/13 07:07:38;;;;;;;6.13;3.20;;;0.80;99.90;;;1.52;100.00;98302.66;4986704;28;20542;-76
2024/02/13 07:10:16;;;;;;;10.43;3.27;;;0.80;99.90;;;1.53;100.00;98304.28;4988332;28;21497;-75
2024/02/13 07:12:45;;;;;;;4.37;3.00;;;0.80;99.90;;;1.51;100.00;98300.19;4985478;28;20467;-75
2024/02/13 07:15:14;;;;;;;5.53;3.47;;;0.80;99.90;;;1.52;100.00;98305.25;4986976;28;20467;-75
2024/02/13 07:17:43;;;;;;;4.97;2.60;;;0.80;99.90;;;1.50;100.00;98299.38;4987391;28;20463;-75
2024/02/13 07:20:28;;;;;;;4.37;3.23;;;0.80;99.90;;;1.60;100.00;98308.97;4988007;28;20530;-75
2024/02/13 07:22:57;;;;;;;6.60;3.03;;;0.90;99.90;;;1.66;100.00;98311.03;4986218;28;20467;-75
2024/02/13 07:25:26;;;;;;;7.90;3.10;;;1.00;99.90;;;1.64;100.00;98313.72;4987474;28;20618;-75
2024/02/13 07:27:55;;;;;;;4.10;3.30;;;1.00;99.90;;;1.67;100.00;98310.06;4988772;28;20463;-75
2024/02/13 07:30:23;;;;;;;4.33;3.00;;;1.00;99.90;;;1.72;100.00;98311.34;4987421;28;20502;-76
2024/02/13 07:32:52;;;;;;;13.20;3.47;;;1.00;99.90;;;1.72;100.00;98319.09;4987666;28;20471;-75
2024/02/13 07:35:21;;;;;;;3.47;2.80;;;1.00;99.90;;;1.74;100.00;98319.75;4988050;28;20831;-75
2024/02/13 07:37:52;;;;;;;8.53;3.40;;;1.10;99.90;;;1.77;100.00;98324.66;4988849;28;20459;-76
2024/02/13 07:40:20;;;;;;;4.80;2.87;;;1.10;99.90;;;1.73;100.00;98325.88;4987732;28;20467;-76
2024/02/13 07:42:49;;;;;;;5.93;3.10;;;1.10;99.90;;;1.79;100.00;98327.13;4987879;28;20478;-75
2024/02/13 07:45:18;;;;;;;3.93;3.00;;;1.10;99.90;;;1.77;100.00;98323.88;4986562;28;20472;-76
2024/02/13 07:47:46;;;;;;;5.73;3.23;;;1.10;99.90;;;1.81;100.00;98323.47;4986900;28;20498;-76
2024/02/13 07:50:18;;;;;;;8.20;3.10;;;1.10;99.90;;;1.80;100.00;98329.59;4987269;28;20491;-75
2024/02/13 07:52:46;;;;;;;4.00;2.90;;;1.20;99.90;;;1.82;100.00;98324.28;4987677;28;21047;-75
2024/02/13 07:55:16;;;;;;;6.57;3.20;;;1.20;99.90;;;1.81;100.00;98322.66;4987175;28;20522;-76
2024/02/13 07:57:49;;;;;;;3.47;3.03;;;1.20;99.90;;;1.78;100.00;98334.03;4987030;28;20478;-75
2024/02/13 08:00:20;;;;;;;4.60;3.20;;;1.10;99.90;;;1.80;100.00;98336.50;4988782;28;20822;-76
2024/02/13 08:02:51;;;;;;;9.77;3.90;;;1.10;99.90;;;1.86;100.00;98336.81;4987799;28;20467;-76
2024/02/13 08:05:20;;;;;;;9.50;4.20;;;1.20;99.90;;;1.92;100.00;98331.16;4987132;28;21184;-75
2024/02/13 08:07:48;;;;;;;4.00;3.30;;;1.30;99.90;;;2.02;100.00;98332.03;4986871;28;20522;-75
2024/02/13 08:10:18;;;;;;;19.00;3.10;;;1.40;99.90;;;2.02;100.00;98332.03;4987410;28;20488;-75
2024/02/13 08:12:47;;;;;;;9.10;3.30;;;1.40;99.90;;;2.09;100.00;98323.78;4987565;28;21055;-76
2024/02/13 08:15:15;;;;;;;4.60;3.23;;;1.50;99.90;;;2.17;100.00;98329.13;4986757;28;20464;-75
2024/02/13 08:17:44;;;;;;;5.67;3.80;;;1.50;99.90;;;2.25;100.00;98327.56;4988254;28;20478;-75
2024/02/13 08:20:13;;;;;;;8.13;3.90;;;1.70;99.90;;;2.33;100.00;98330.28;4986127;28;20476;-75
2024/02/13 08:22:42;;;;;;;6.50;3.77;;;1.70;99.90;;;2.38;100.00;98330.75;4987760;28;20979;-76
2024/02/13 08:25:10;;;;;;;6.20;3.53;;;1.80;99.90;;;2.46;100.00;98335.25;4985896;28;20464;-75
2024/02/13 08:27:40;;;;;;;5.17;3.53;;;1.90;99.90;;;2.53;100.00;98332.00;4986593;28;20539;-76
2024/02/13 08:30:10;;;;;;;4.27;2.83;;;2.00;99.90;;;2.60;100.00;98341.84;4985220;28;20495;-76
2024/02/13 08:32:41;;;;;;;6.10;3.20;;;2.00;99.90;;;2.70;100.00;98338.34;4986035;28;20468;-76
2024/02/13 08:35:11;;;;;;;4.17;2.60;;;2.10;99.90;;;2.74;100.00;98344.06;4986076;28;20471;-76
2024/02/13 08:37:40;;;;;;;7.10;3.30;;;2.20;99.90;;;2.85;100.00;98346.53;4986222;28;21008;-76
2024/02/13 08:40:13;;;;;;;3.13;2.73;;;2.20;99.90;;;2.92;100.00;98343.28;4985691;28;20463;-76
2024/02/13 08:42:44;;;;;;;7.43;3.53;;;2.40;99.90;;;2.98;100.00;98347.13;4986161;28;20888;-75
2024/02/13 08:45:13;;;;;;;4.47;2.57;;;2.40;99.90;;;3.04;100.00;98344.00;4986190;28;20566;-76
2024/02/13 08:47:42;;;;;;;4.50;3.27;;;2.50;99.90;;;3.13;100.00;98345.78;4986389;28;20472;-76
2024/02/13 08:50:12;;;;;;;3.93;2.53;;;2.60;99.90;;;3.18;100.00;98348.81;4985966;28;20500;-76
2024/02/13 08:52:41;;;;;;;4.00;2.20;;;2.60;99.90;;;3.23;100.00;98346.63;4985209;28;20465;-76
2024/02/13 08:55:11;;;;;;;3.30;2.50;;;2.70;99.90;;;3.30;100.00;98352.88;4983816;28;21139;-76
2024/02/13 08:57:39;;;;;;;3.67;2.67;;;2.80;99.90;;;3.33;100.00;98354.41;4986868;28;20472;-76
2024/02/13 09:00:15;;;;;;;3.07;2.37;;;2.90;99.90;;;3.37;100.00;98353.16;4985972;28;20485;-76
2024/02/13 09:02:46;;;;;;;3.37;2.30;;;2.90;99.90;;;3.40;100.00;98361.47;4986912;28;20646;-76
2024/02/13 09:05:15;;;;;;;3.07;2.60;;;2.90;99.90;;;3.46;100.00;98368.72;4987549;28;20463;-76
2024/02/13 09:07:43;;;;;;;5.63;2.93;;;2.90;99.90;;;3.50;100.00;98369.25;4988027;28;20861;-76
2024/02/13 09:10:12;;;;;;;5.50;2.80;;;3.10;99.90;;;3.58;100.00;98366.78;4987273;28;20501;-76
2024/02/13 09:12:45;;;;;;;2.70;2.30;;;3.10;99.90;;;3.62;100.00;98367.34;4985648;28;20458;-76
2024/02/13 09:15:15;;;;;;;4.50;2.40;;;3.00;99.90;;;3.67;100.00;98370.34;4986247;28;20571;-76
2024/02/13 09:17:46;;;;;;;4.20;2.53;;;3.10;99.90;;;3.73;100.00;98369.81;4987216;28;20464;-76
2024/02/13 09:20:15;;;;;;;6.90;3.00;;;3.20;99.90;;;3.77;100.00;98381.50;4986912;28;20473;-76
2024/02/13 09:22:45;;;;;;;7.33;3.43;;;3.20;99.90;;;3.82;100.00;98369.78;4985614;28;20474;-76
2024/02/13 09:25:16;;;;;;;3.53;2.73;;;3.20;99.90;;;3.86;100.00;98370.34;4985018;28;20486;-76
2024/02/13 09:27:47;;;;;;;5.60;3.00;;;3.30;99.90;;;3.89;100.00;98372.66;4985670;28;20459;-76
2024/02/13 09:30:18;;;;;;;4.67;2.53;;;3.30;99.90;;;3.97;100.00;98380.53;4982683;28;20973;-76
2024/02/13 09:32:47;;;;;;;6.90;3.13;;;3.30;99.90;;;4.00;100.00;98382.84;4985666;28;21072;-76
2024/02/13 09:35:17;;;;;;;4.10;2.67;;;3.50;99.90;;;4.05;100.00;98381.50;4984453;28;20476;-76
2024/02/13 09:37:46;;;;;;;6.30;3.03;;;3.50;99.90;;;4.12;100.00;98383.53;4985361;28;21471;-76
2024/02/13 09:40:14;;;;;;;5.00;2.50;;;3.50;99.90;;;4.17;100.00;98391.69;4985292;28;20455;-76
2024/02/13 09:42:44;;;;;;;6.43;3.03;;;3.60;99.90;;;4.21;100.00;98391.28;4985836;28;20467;-76
2024/02/13 09:45:16;;;;;;;7.33;4.10;;;3.60;99.90;;;4.28;100.00;98387.19;4986682;28;20521;-77
2024/02/13 09:47:47;;;;;;;5.00;3.30;;;3.70;99.90;;;4.31;100.00;98402.44;4985538;28;20466;-76
2024/02/13 09:50:16;;;;;;;3.90;2.90;;;3.70;99.90;;;4.36;100.00;98400.25;4985084;28;20455;-77
2024/02/13 09:52:49;;;;;;;7.93;3.40;;;3.90;99.90;;;4.40;100.00;98401.63;4986041;28;21000;-76
2024/02/13 09:55:20;;;;;;;10.27;3.43;;;3.90;99.90;;;4.46;100.00;98411.41;4985222;28;20531;-76
2024/02/13 09:57:50;;;;;;;12.37;3.40;;;3.90;99.90;;;4.51;100.00;98409.19;4985583;28;21710;-76
2024/02/13 10:00:19;;;;;;;5.70;3.17;;;3.90;99.90;;;4.57;100.00;98397.47;4986410;28;20543;-76
2024/02/13 10:02:50;;;;;;;4.60;3.57;;;4.00;99.90;;;4.63;100.00;98403.84;4985872;28;20463;-76
2024/02/13 10:05:20;;;;;;;6.90;3.67;;;4.10;99.90;;;4.65;100.00;98399.38;4985721;28;20574;-76
2024/02/13 10:07:50;;;;;;;5.53;3.43;;;4.10;99.90;;;4.69;100.00;98401.53;4984584;28;20498;-76
2024/02/13 10:10:18;;;;;;;4.70;3.30;;;4.10;99.90;;;4.74;100.00;98403.69;4985470;28;20467;-76
2024/02/13 10:12:53;;;;;;;8.47;3.70;;;4.20;99.90;;;4.79;100.00;98411.88;4986792;28;20579;-76
2024/02/13 10:15:24;;;;;;;7.83;3.70;;;4.20;99.90;;;4.84;100.00;98414.84;4986812;28;21153;-76
2024/02/13 10:17:55;;;;;;;6.00;3.37;;;4.40;99.90;;;4.92;100.00;98412.38;4986535;28;20460;-76
2024/02/13 10:20:23;;;;;;;5.93;3.47;;;4.40;99.90;;;4.93;100.00;98403.59;4985238;28;20515;-76
2024/02/13 10:22:54;;;;;;;9.97;3.43;;;4.50;99.90;;;4.96;100.00;98413.72;4985099;28;20459;-75
2024/02/13 10:25:29;;;;;;;5.57;3.13;;;4.50;99.90;;;5.00;100.00;98405.50;4984361;28;20943;-76
2024/02/13 10:28:00;;;;;;;6.27;3.37;;;4.60;99.90;;;5.02;100.00;98405.38;4985363;28;20463;-76
2024/02/13 10:30:31;;;;;;;6.30;3.50;;;4.40;99.90;;;5.06;100.00;98406.72;4985373;28;20490;-75
2024/02/13 10:33:06;;;;;;;10.00;3.90;;;4.50;99.90;;;5.13;100.00;98409.53;4985722;28;20478;-76
2024/02/13 10:35:38;;;;;;;4.23;3.27;;;4.60;99.90;;;5.15;100.00;98407.63;4985276;28;20474;-76
2024/02/13 10:38:08;;;;;;;6.20;3.30;;;4.50;99.90;;;5.19;100.00;98409.78;4985112;28;20549;-77